Time;durP1;ratioP1;P1;durP2;ratioP2;P2;SDS_P1;SDS_P2;PMS_P1;PMS_P2;Temp;Humidity;BMP_temperature;BMP_pressure;BME280_temperature;BME280_humidity;BME280_pressure;Samples;Min_cycle;Max_cycle;Signal;HPM_P1;HPM_P2
2022/10/01 11:13:19;;;;;;;10.68;9.68;;;16.80;99.90;;;;;;6261842;22;1285893;-67
2022/10/01 11:16:17;;;;;;;10.75;9.70;;;16.80;99.90;;;;;;6244458;22;20066;-67
2022/10/01 11:19:17;;;;;;;10.75;9.75;;;16.90;99.90;;;;;;6244413;22;20000;-66
2022/10/01 11:22:04;;;;;;;11.18;10.18;;;16.90;99.90;;;;;;6244414;22;20042;-67
2022/10/01 11:24:51;;;;;;;11.45;10.27;;;17.00;99.90;;;;;;6244386;23;20133;-66
2022/10/01 11:27:37;;;;;;;11.50;10.38;;;17.00;99.90;;;;;;6243746;23;20381;-66
2022/10/01 11:30:23;;;;;;;13.15;10.75;;;17.00;99.90;;;;;;6242884;22;20464;-67
2022/10/01 11:33:10;;;;;;;17.35;11.23;;;17.10;99.90;;;;;;6239398;22;20456;-66
2022/10/01 11:35:59;;;;;;;11.50;10.35;;;17.10;99.90;;;;;;6235429;23;20004;-66
2022/10/01 11:38:44;;;;;;;11.45;10.35;;;17.20;99.90;;;;;;6239148;22;20008;-66
2022/10/01 11:41:31;;;;;;;11.45;10.35;;;17.20;99.90;;;;;;6241414;22;20018;-68
2022/10/01 11:44:05;;;;;;;11.68;10.55;;;17.10;99.90;;;;;;6235212;22;20031;-67
2022/10/01 11:46:40;;;;;;;12.98;10.55;;;17.10;99.90;;;;;;6235087;22;20382;-68
2022/10/01 11:49:17;;;;;;;12.02;10.77;;;17.20;99.90;;;;;;6238859;22;20023;-68
2022/10/01 11:51:53;;;;;;;14.52;11.80;;;17.10;99.90;;;;;;6239623;23;20005;-67
2022/10/01 11:54:25;;;;;;;12.88;11.57;;;17.20;99.90;;;;;;6233951;22;20000;-71
2022/10/01 11:59:50;;;;;;;13.63;12.23;;;17.20;99.90;;;;;;6234952;23;20356;-71
2022/10/01 12:02:31;;;;;;;13.55;12.15;;;17.20;99.90;;;;;;6230678;22;20012;-72
2022/10/01 12:05:14;;;;;;;13.45;12.05;;;17.10;99.90;;;;;;6230840;22;20004;-71
2022/10/01 12:07:39;;;;;;;13.65;12.30;;;17.10;99.90;;;;;;6228834;22;20550;-72
2022/10/01 12:10:24;;;;;;;14.90;13.32;;;17.00;99.90;;;;;;6223586;23;20422;-72
2022/10/01 12:13:14;;;;;;;15.75;13.35;;;17.00;99.90;;;;;;6200101;23;20082;-71
2022/10/01 12:16:05;;;;;;;13.50;12.10;;;17.10;99.90;;;;;;6197246;23;20012;-72
2022/10/01 12:18:38;;;;;;;13.00;11.70;;;17.10;99.90;;;;;;6198837;23;20397;-72
2022/10/01 12:21:19;;;;;;;15.30;12.70;;;17.10;99.90;;;;;;6200283;23;20012;-72
2022/10/01 12:23:53;;;;;;;15.07;12.20;;;17.10;99.90;;;;;;6194319;23;20512;-72
2022/10/01 12:27:00;;;;;;;14.10;11.93;;;17.10;99.90;;;;;;6199116;23;20755;-71
2022/10/01 12:29:38;;;;;;;17.70;12.45;;;17.00;99.90;;;;;;6187455;23;20706;-72
2022/10/01 12:32:33;;;;;;;14.57;13.00;;;17.00;99.90;;;;;;6198284;23;20012;-71
2022/10/01 12:35:17;;;;;;;15.40;13.23;;;17.00;99.90;;;;;;6201524;23;20020;-71
2022/10/01 12:37:53;;;;;;;14.95;13.43;;;17.10;99.90;;;;;;6202231;23;20001;-65
2022/10/01 12:40:26;;;;;;;17.38;13.80;;;17.00;99.90;;;;;;6200733;23;20031;-65
2022/10/01 12:43:24;;;;;;;15.80;14.10;;;17.00;99.90;;;;;;6201220;23;20616;-65
2022/10/01 12:46:15;;;;;;;20.42;16.65;;;17.00;99.90;;;;;;6203551;23;20009;-66
2022/10/01 12:48:56;;;;;;;18.10;15.55;;;17.10;99.90;;;;;;6202691;23;20012;-66
2022/10/01 12:51:39;;;;;;;19.40;16.50;;;17.10;99.90;;;;;;6203486;23;20422;-65
2022/10/01 12:54:09;;;;;;;18.02;16.23;;;17.00;99.90;;;;;;6204148;23;20019;-65
2022/10/01 12:56:47;;;;;;;18.08;16.20;;;17.10;99.90;;;;;;6204766;23;20031;-64
2022/10/01 12:59:27;;;;;;;19.70;15.68;;;17.10;99.90;;;;;;6205850;23;20004;-65
2022/10/01 13:02:19;;;;;;;17.42;15.60;;;17.10;99.90;;;;;;6204265;23;20023;-70
2022/10/01 13:05:14;;;;;;;17.63;15.55;;;17.10;99.90;;;;;;6203906;23;20008;-70
2022/10/01 13:07:55;;;;;;;19.48;15.13;;;17.10;99.90;;;;;;6178604;23;20012;-70
2022/10/01 13:10:37;;;;;;;18.30;16.27;;;17.10;99.90;;;;;;6205141;23;20000;-69
2022/10/01 13:13:11;;;;;;;18.02;16.13;;;17.10;99.90;;;;;;6204517;23;20422;-70
2022/10/01 13:15:40;;;;;;;16.67;14.88;;;17.20;99.90;;;;;;6202816;23;20533;-65
2022/10/01 13:18:37;;;;;;;16.27;14.60;;;17.20;99.90;;;;;;6204133;23;20008;-66
2022/10/01 13:21:28;;;;;;;19.15;16.20;;;17.20;99.90;;;;;;6203472;23;20021;-64
2022/10/01 13:24:35;;;;;;;16.40;14.70;;;17.20;99.90;;;;;;6196390;23;20008;-64
2022/10/01 13:27:21;;;;;;;18.27;15.88;;;17.10;99.90;;;;;;6202744;23;20457;-64
2022/10/01 13:29:56;;;;;;;16.80;14.98;;;17.20;99.90;;;;;;6204923;23;20008;-64
2022/10/01 13:32:32;;;;;;;17.00;14.55;;;17.10;99.90;;;;;;6199161;23;20485;-65
2022/10/01 13:35:17;;;;;;;16.10;14.40;;;17.10;99.90;;;;;;6199860;23;20000;-64
2022/10/01 13:37:43;;;;;;;16.42;14.77;;;17.10;99.90;;;;;;6204785;23;20032;-64
2022/10/01 13:40:23;;;;;;;15.63;14.00;;;17.10;99.90;;;;;;6198656;23;20007;-64
2022/10/01 13:42:51;;;;;;;17.15;15.25;;;17.10;99.90;;;;;;6203351;23;20009;-64
2022/10/01 13:45:25;;;;;;;16.73;14.13;;;17.10;99.90;;;;;;6199556;23;20008;-64
2022/10/01 13:47:51;;;;;;;18.52;14.52;;;17.20;99.90;;;;;;6201461;23;20016;-63
2022/10/01 13:50:22;;;;;;;17.55;15.52;;;17.20;99.90;;;;;;6201110;23;20004;-63
2022/10/01 13:52:50;;;;;;;16.90;14.50;;;17.20;99.90;;;;;;6204468;23;20373;-64
2022/10/01 13:55:28;;;;;;;16.42;14.65;;;17.30;99.90;;;;;;6201526;23;20008;-63
2022/10/01 13:58:18;;;;;;;16.48;14.55;;;17.30;99.90;;;;;;6204084;23;20330;-63
2022/10/01 14:00:52;;;;;;;16.17;14.32;;;17.30;99.90;;;;;;6202052;23;20095;-64
2022/10/01 14:03:57;;;;;;;14.25;12.77;;;17.30;99.90;;;;;;6195697;23;20732;-64
2022/10/01 14:06:31;;;;;;;14.60;12.60;;;17.40;99.90;;;;;;6201686;23;20008;-64
2022/10/01 14:09:11;;;;;;;13.48;11.27;;;17.40;99.90;;;;;;6203443;23;20014;-64
2022/10/01 14:17:10;;;;;;;11.13;9.82;;;17.30;99.90;;;;;;6201134;23;20338;-64
2022/10/01 14:19:43;;;;;;;10.70;9.35;;;17.30;99.90;;;;;;6205688;23;20075;-64
2022/10/01 14:22:08;;;;;;;10.02;9.00;;;17.30;99.90;;;;;;6203512;23;20460;-64
2022/10/01 14:25:01;;;;;;;9.40;8.45;;;17.20;99.90;;;;;;6204954;23;20005;-64
2022/10/01 14:27:30;;;;;;;9.63;8.65;;;17.20;99.90;;;;;;6202229;23;20005;-64
2022/10/01 14:30:05;;;;;;;8.80;8.00;;;17.20;99.90;;;;;;6194777;23;20022;-64
2022/10/01 14:32:49;;;;;;;8.43;7.60;;;17.20;99.90;;;;;;6198147;23;20080;-64
2022/10/01 14:35:23;;;;;;;9.70;8.45;;;17.20;99.90;;;;;;6194054;23;20004;-69
2022/10/01 14:37:50;;;;;;;8.82;7.93;;;17.20;99.90;;;;;;6197899;23;20620;-64
2022/10/01 14:40:21;;;;;;;9.10;8.20;;;17.20;99.90;;;;;;6199708;23;20013;-64
2022/10/01 14:43:04;;;;;;;8.63;7.80;;;17.20;99.90;;;;;;6201366;23;20013;-64
2022/10/01 14:45:29;;;;;;;9.30;8.05;;;17.20;99.90;;;;;;6200599;23;20017;-64
2022/10/01 14:48:04;;;;;;;7.13;6.40;;;17.20;99.90;;;;;;6201453;23;20027;-65
2022/10/01 14:50:33;;;;;;;6.97;6.15;;;17.20;99.90;;;;;;6199813;23;20322;-64
2022/10/01 14:52:58;;;;;;;7.72;5.97;;;17.10;99.90;;;;;;6201255;23;20434;-64
2022/10/01 14:55:25;;;;;;;6.60;5.15;;;17.10;99.90;;;;;;6201691;23;20001;-64
2022/10/01 14:57:54;;;;;;;6.70;4.80;;;17.20;99.90;;;;;;6203224;23;20005;-65
2022/10/01 15:00:22;;;;;;;5.10;4.55;;;17.10;99.90;;;;;;6202160;23;20023;-64
2022/10/01 15:02:51;;;;;;;6.68;4.93;;;17.00;99.90;;;;;;6202167;23;20004;-64
2022/10/01 15:05:31;;;;;;;4.85;3.92;;;17.00;99.90;;;;;;6199994;23;20528;-64
2022/10/01 15:07:58;;;;;;;4.25;3.85;;;17.00;99.90;;;;;;6200774;23;20055;-65
2022/10/01 15:10:27;;;;;;;4.97;3.67;;;17.00;99.90;;;;;;6200557;23;20515;-64
2022/10/01 15:12:54;;;;;;;3.90;3.50;;;16.80;99.90;;;;;;6203483;23;20179;-64
2022/10/01 15:15:20;;;;;;;3.85;2.95;;;16.80;99.90;;;;;;6201264;23;20317;-64
2022/10/01 15:17:47;;;;;;;3.60;2.78;;;16.80;99.90;;;;;;6204228;23;20452;-64
2022/10/01 15:20:14;;;;;;;4.25;2.58;;;16.70;99.90;;;;;;6204947;23;20051;-64
2022/10/01 15:22:42;;;;;;;3.30;2.17;;;16.70;99.90;;;;;;6203706;23;20306;-64
2022/10/01 15:25:18;;;;;;;3.58;2.42;;;16.70;99.90;;;;;;6206016;23;20551;-64
2022/10/01 15:27:43;;;;;;;3.70;2.40;;;16.80;99.90;;;;;;6205056;23;20478;-64
2022/10/01 15:30:14;;;;;;;3.33;2.00;;;16.80;99.90;;;;;;6206928;23;20083;-64
2022/10/01 15:32:40;;;;;;;4.50;2.40;;;16.80;99.90;;;;;;6204781;23;20019;-63
2022/10/01 15:35:12;;;;;;;3.70;2.50;;;16.80;99.90;;;;;;6203228;23;20004;-63
2022/10/01 15:37:39;;;;;;;3.85;1.98;;;16.80;99.90;;;;;;6207905;23;20770;-63
2022/10/01 15:40:08;;;;;;;2.60;1.95;;;16.80;99.90;;;;;;6207465;23;20009;-64
2022/10/01 15:42:35;;;;;;;7.35;2.83;;;16.80;99.90;;;;;;6207167;23;20476;-63
2022/10/01 15:45:19;;;;;;;6.97;2.70;;;16.80;99.90;;;;;;6206482;23;20000;-64
2022/10/01 15:47:51;;;;;;;3.00;2.50;;;16.70;99.90;;;;;;6207037;23;20207;-65
2022/10/01 15:50:17;;;;;;;3.50;3.20;;;16.70;99.90;;;;;;6205311;23;20020;-64
2022/10/01 15:53:02;;;;;;;6.00;2.83;;;16.60;99.90;;;;;;6205342;23;20005;-64
2022/10/01 15:55:47;;;;;;;4.60;3.30;;;16.60;99.90;;;;;;6206266;23;20023;-63
2022/10/01 15:58:20;;;;;;;6.43;4.78;;;16.60;99.90;;;;;;6204773;23;20556;-63
2022/10/01 16:00:49;;;;;;;4.30;3.63;;;16.60;99.90;;;;;;6208097;23;20012;-65
2022/10/01 16:03:34;;;;;;;5.82;4.65;;;16.60;99.90;;;;;;6206881;23;20003;-62
2022/10/01 16:06:02;;;;;;;3.17;2.50;;;16.60;99.90;;;;;;6206754;23;20012;-63
2022/10/01 16:08:33;;;;;;;4.68;2.72;;;16.60;99.90;;;;;;6206867;23;20008;-62
2022/10/01 16:11:17;;;;;;;3.30;3.00;;;16.60;99.90;;;;;;6206220;23;20004;-62
2022/10/01 16:13:45;;;;;;;2.47;1.70;;;16.60;99.90;;;;;;6207092;23;20242;-62
2022/10/01 16:16:20;;;;;;;3.10;1.60;;;16.60;99.90;;;;;;6204005;23;20004;-63
2022/10/01 16:19:30;;;;;;;3.13;1.77;;;16.50;99.90;;;;;;6204313;23;20004;-64
2022/10/01 16:22:24;;;;;;;1.80;1.55;;;16.50;99.90;;;;;;6205392;23;20016;-64
2022/10/01 16:25:02;;;;;;;2.40;1.65;;;16.50;99.90;;;;;;6204160;23;20009;-64
2022/10/01 16:27:47;;;;;;;10.80;4.65;;;16.40;99.90;;;;;;6206043;23;20047;-63
2022/10/01 16:30:28;;;;;;;13.38;4.10;;;16.40;99.90;;;;;;6206218;23;20393;-64
2022/10/01 16:32:55;;;;;;;12.38;4.85;;;16.30;99.90;;;;;;6205938;23;20011;-65
2022/10/01 16:35:26;;;;;;;6.50;1.70;;;16.30;99.90;;;;;;6205863;23;19997;-65
2022/10/01 16:37:54;;;;;;;4.63;1.90;;;16.20;99.90;;;;;;6205383;23;20015;-65
2022/10/01 16:40:23;;;;;;;4.10;2.03;;;16.10;99.90;;;;;;6205297;23;20141;-65
2022/10/01 16:42:49;;;;;;;1.20;0.55;;;16.20;99.90;;;;;;6203266;23;20013;-65
2022/10/01 16:45:18;;;;;;;1.02;0.70;;;16.10;99.90;;;;;;6204880;23;20043;-65
2022/10/01 16:47:45;;;;;;;1.25;0.90;;;16.10;99.90;;;;;;6205680;23;20238;-65
2022/10/01 16:50:12;;;;;;;5.20;2.58;;;16.00;99.90;;;;;;6207697;23;20008;-64
2022/10/01 16:52:39;;;;;;;4.35;1.90;;;16.00;99.90;;;;;;6205867;23;20375;-65
2022/10/01 16:55:26;;;;;;;1.35;0.90;;;16.00;99.90;;;;;;6205719;23;20040;-65
2022/10/01 16:57:55;;;;;;;0.93;0.60;;;15.90;99.90;;;;;;6207066;23;20018;-65
2022/10/01 17:00:23;;;;;;;2.25;1.10;;;15.80;99.90;;;;;;6206716;23;20005;-65
2022/10/01 17:02:48;;;;;;;1.98;1.17;;;15.80;99.90;;;;;;6207137;23;20020;-65
2022/10/01 17:05:24;;;;;;;1.13;0.82;;;15.80;99.90;;;;;;6207594;23;20001;-65
2022/10/01 17:07:50;;;;;;;4.22;2.92;;;15.90;99.90;;;;;;6206722;23;20090;-65
2022/10/01 17:10:18;;;;;;;4.05;3.65;;;15.90;99.90;;;;;;6206721;23;20031;-66
2022/10/01 17:12:46;;;;;;;11.05;8.13;;;15.80;99.90;;;;;;6206256;23;20504;-65
2022/10/01 17:15:18;;;;;;;11.43;6.38;;;15.90;99.90;;;;;;6206533;23;20031;-65
2022/10/01 17:17:44;;;;;;;6.45;2.25;;;15.90;99.90;;;;;;6207197;23;20001;-65
2022/10/01 17:20:11;;;;;;;4.82;1.83;;;15.90;99.90;;;;;;6207806;23;20059;-65
2022/10/01 17:22:38;;;;;;;2.50;2.15;;;15.80;99.90;;;;;;6208024;23;20012;-64
2022/10/01 17:25:04;;;;;;;2.85;1.95;;;15.80;99.90;;;;;;6206079;23;20059;-65
2022/10/01 17:27:30;;;;;;;2.67;1.50;;;15.80;99.90;;;;;;6207102;23;20035;-64
2022/10/01 17:29:56;;;;;;;4.38;2.33;;;15.60;99.90;;;;;;6207085;23;20420;-66
2022/10/01 17:32:21;;;;;;;2.20;2.00;;;15.40;99.90;;;;;;6207033;23;20001;-66
2022/10/01 17:34:48;;;;;;;2.83;1.30;;;15.40;99.90;;;;;;6207446;23;20004;-66
2022/10/01 17:37:14;;;;;;;1.60;1.08;;;15.40;99.90;;;;;;6207612;23;20078;-65
2022/10/01 17:39:41;;;;;;;3.42;1.60;;;15.50;99.90;;;;;;6207527;23;20283;-66
2022/10/01 17:42:10;;;;;;;1.40;1.30;;;15.50;99.90;;;;;;6206423;23;20012;-66
2022/10/01 17:44:36;;;;;;;2.45;1.20;;;15.50;99.90;;;;;;6206710;23;20005;-65
2022/10/01 17:47:03;;;;;;;1.50;1.20;;;15.50;99.90;;;;;;6206435;23;20099;-66
2022/10/01 17:49:28;;;;;;;3.15;1.40;;;15.50;99.90;;;;;;6207350;23;20472;-65
2022/10/01 17:51:54;;;;;;;1.63;1.50;;;15.50;99.90;;;;;;6207453;23;20013;-66
2022/10/01 17:54:20;;;;;;;2.25;1.48;;;15.50;99.90;;;;;;6208338;23;20476;-66
2022/10/01 17:56:46;;;;;;;2.25;1.80;;;15.40;99.90;;;;;;6206803;23;20007;-66
2022/10/01 17:59:12;;;;;;;3.72;1.63;;;15.40;99.90;;;;;;6207478;23;20009;-66
2022/10/01 18:01:39;;;;;;;6.57;1.90;;;15.30;99.90;;;;;;6204075;23;20012;-65
2022/10/01 18:04:04;;;;;;;3.35;1.33;;;15.40;99.90;;;;;;6206583;23;20610;-66
2022/10/01 18:06:30;;;;;;;2.03;1.40;;;15.40;99.90;;;;;;6206795;23;20055;-66
2022/10/01 18:08:55;;;;;;;1.15;1.05;;;15.30;99.90;;;;;;6206838;23;20042;-66
2022/10/01 18:11:23;;;;;;;2.38;1.30;;;15.30;99.90;;;;;;6206318;23;20008;-66
2022/10/01 18:13:50;;;;;;;1.95;1.50;;;15.30;99.90;;;;;;6206636;23;20020;-66
2022/10/01 18:16:15;;;;;;;1.20;1.10;;;15.30;99.90;;;;;;6206585;23;20039;-66
2022/10/01 18:18:43;;;;;;;1.77;1.10;;;15.30;99.90;;;;;;6206010;23;20000;-65
2022/10/01 18:21:14;;;;;;;2.17;1.15;;;15.30;99.90;;;;;;6205987;23;20017;-66
2022/10/01 18:23:41;;;;;;;3.92;1.45;;;15.20;99.90;;;;;;6207899;23;20004;-66
2022/10/01 18:26:07;;;;;;;2.15;1.60;;;15.20;99.90;;;;;;6206942;23;20004;-66
2022/10/01 18:28:33;;;;;;;4.25;1.63;;;15.20;99.90;;;;;;6207877;23;20131;-66
2022/10/01 18:31:11;;;;;;;2.28;2.08;;;15.20;99.90;;;;;;6204576;23;20037;-65
2022/10/01 18:33:46;;;;;;;2.92;1.70;;;15.20;99.90;;;;;;6205954;23;20427;-65
2022/10/01 18:36:25;;;;;;;2.28;2.00;;;15.20;99.90;;;;;;6206742;23;20015;-65
2022/10/01 18:39:04;;;;;;;2.33;2.08;;;15.20;99.90;;;;;;6206186;23;20028;-65
2022/10/01 18:41:37;;;;;;;2.88;1.98;;;15.20;99.90;;;;;;6206572;23;20013;-70
2022/10/01 18:44:09;;;;;;;4.80;2.33;;;15.20;99.90;;;;;;6206663;23;20098;-69
2022/10/01 18:46:48;;;;;;;3.05;2.45;;;15.20;99.90;;;;;;6205951;23;20000;-70
2022/10/01 18:49:32;;;;;;;2.33;2.13;;;15.10;99.90;;;;;;6207090;23;20005;-70
2022/10/01 18:52:04;;;;;;;3.28;2.53;;;15.10;99.90;;;;;;6205015;23;20000;-70
2022/10/01 18:54:45;;;;;;;3.40;2.65;;;15.20;99.90;;;;;;6206192;23;20040;-70
2022/10/01 18:57:14;;;;;;;2.80;2.60;;;15.10;99.90;;;;;;6207714;23;20009;-70
2022/10/01 19:00:10;;;;;;;3.30;3.00;;;15.20;99.90;;;;;;6205261;23;20784;-69
2022/10/01 19:02:49;;;;;;;3.25;2.97;;;15.20;99.90;;;;;;6206983;23;20013;-69
2022/10/01 19:05:23;;;;;;;3.50;3.20;;;15.20;99.90;;;;;;6208682;23;20005;-69
2022/10/01 19:08:09;;;;;;;3.22;3.03;;;15.20;99.90;;;;;;6207942;23;20452;-69
2022/10/01 19:10:54;;;;;;;4.18;3.78;;;15.20;99.90;;;;;;6206815;23;20005;-69
2022/10/01 19:13:43;;;;;;;4.90;4.15;;;15.20;99.90;;;;;;6208902;23;20022;-69
2022/10/01 19:16:28;;;;;;;3.95;3.65;;;15.20;99.90;;;;;;6207877;23;20106;-69
2022/10/01 19:19:14;;;;;;;5.07;4.18;;;15.20;99.90;;;;;;6207466;23;20330;-68
2022/10/01 19:21:57;;;;;;;4.22;3.83;;;15.20;99.90;;;;;;6207591;23;20204;-65
2022/10/01 19:24:44;;;;;;;4.30;3.83;;;15.20;99.90;;;;;;6208271;23;20437;-66
2022/10/01 19:27:31;;;;;;;4.30;3.90;;;15.20;99.90;;;;;;6208212;23;20015;-66
2022/10/01 19:29:59;;;;;;;4.07;3.55;;;15.20;99.90;;;;;;6206541;23;20005;-66
2022/10/01 19:32:33;;;;;;;5.95;5.45;;;15.20;99.90;;;;;;6206050;23;20074;-65
2022/10/01 19:35:10;;;;;;;4.40;3.72;;;15.20;99.90;;;;;;6207635;23;20001;-65
2022/10/01 19:37:42;;;;;;;3.10;2.88;;;15.10;99.90;;;;;;6207705;23;20087;-69
2022/10/01 19:40:19;;;;;;;3.95;2.67;;;15.20;99.90;;;;;;6205730;23;20066;-69
2022/10/01 19:42:52;;;;;;;3.13;2.92;;;15.10;99.90;;;;;;6204511;23;20572;-70
2022/10/01 19:45:42;;;;;;;3.67;2.72;;;15.10;99.90;;;;;;6206184;23;20008;-69
2022/10/01 19:48:29;;;;;;;3.33;2.95;;;15.00;99.90;;;;;;6206615;23;20368;-69
2022/10/01 19:51:05;;;;;;;3.88;2.70;;;15.00;99.90;;;;;;6207666;23;20015;-69
2022/10/01 19:53:36;;;;;;;2.90;2.70;;;15.10;99.90;;;;;;6208019;23;20036;-69
2022/10/01 19:56:02;;;;;;;6.53;3.35;;;15.10;99.90;;;;;;6206178;23;20005;-65
2022/10/01 19:58:29;;;;;;;8.30;3.70;;;15.00;99.90;;;;;;6206437;23;20012;-65
2022/10/01 20:00:57;;;;;;;4.30;3.65;;;15.00;99.90;;;;;;6205850;23;20445;-65
2022/10/01 20:03:38;;;;;;;3.60;3.30;;;14.90;99.90;;;;;;6207020;23;20004;-65
2022/10/01 20:06:18;;;;;;;4.68;4.28;;;14.90;99.90;;;;;;6207717;23;20004;-65
2022/10/01 20:08:54;;;;;;;5.32;4.60;;;14.90;99.90;;;;;;6207329;23;20005;-65
2022/10/01 20:11:39;;;;;;;5.05;4.55;;;14.90;99.90;;;;;;6208053;23;20008;-65
2022/10/01 20:17:43;;;;;;;5.40;4.45;;;15.00;99.90;;;;;;6205068;23;20047;-69
2022/10/01 20:20:30;;;;;;;5.40;4.50;;;14.90;99.90;;;;;;6124201;23;20084;-67
2022/10/01 20:23:17;;;;;;;5.70;4.65;;;15.00;99.90;;;;;;6204678;23;20087;-69
2022/10/01 20:25:53;;;;;;;5.05;4.35;;;15.00;99.90;;;;;;6205149;23;20045;-67
2022/10/01 20:28:35;;;;;;;4.80;4.30;;;14.90;99.90;;;;;;6204187;23;20058;-68
2022/10/01 20:31:10;;;;;;;5.30;4.80;;;14.90;99.90;;;;;;6202762;23;20490;-67
2022/10/01 20:33:58;;;;;;;5.90;5.40;;;14.80;99.90;;;;;;6205196;23;20438;-67
2022/10/01 20:36:33;;;;;;;6.10;5.50;;;14.80;99.90;;;;;;6203135;23;20001;-66
2022/10/01 20:39:11;;;;;;;6.47;5.95;;;14.80;99.90;;;;;;6205021;23;20008;-65
2022/10/01 20:41:43;;;;;;;6.90;6.30;;;14.80;99.90;;;;;;6201883;23;20092;-66
2022/10/01 20:44:14;;;;;;;7.40;6.70;;;14.80;99.90;;;;;;6203942;23;20000;-66
2022/10/01 20:46:45;;;;;;;6.20;5.63;;;14.80;99.90;;;;;;6203569;23;20148;-66
2022/10/01 20:49:22;;;;;;;6.20;5.07;;;14.80;99.90;;;;;;6207412;23;20032;-66
2022/10/01 20:52:31;;;;;;;5.80;5.30;;;14.70;99.90;;;;;;6206223;23;20437;-66
2022/10/01 20:55:07;;;;;;;5.40;4.80;;;14.70;99.90;;;;;;6206445;23;20490;-66
2022/10/01 20:57:57;;;;;;;7.13;5.47;;;14.70;99.90;;;;;;6206893;23;20358;-66
2022/10/01 21:00:25;;;;;;;5.70;5.20;;;14.70;99.90;;;;;;6203357;23;20001;-66
2022/10/01 21:02:55;;;;;;;6.28;5.55;;;14.80;99.90;;;;;;6204471;23;20019;-67
2022/10/01 21:05:26;;;;;;;6.88;6.20;;;14.80;99.90;;;;;;6204126;23;20011;-67
2022/10/01 21:08:08;;;;;;;7.32;6.47;;;14.70;99.90;;;;;;6206965;23;20052;-67
2022/10/01 21:10:42;;;;;;;5.93;5.43;;;14.70;99.90;;;;;;6205425;23;20139;-67
2022/10/01 21:13:29;;;;;;;8.02;5.82;;;14.70;99.90;;;;;;6206681;23;20009;-68
2022/10/01 21:16:13;;;;;;;6.00;3.70;;;14.70;99.90;;;;;;6206532;23;20012;-68
2022/10/01 21:19:16;;;;;;;5.05;4.55;;;14.70;99.90;;;;;;6206896;23;20462;-68
2022/10/01 21:21:45;;;;;;;6.47;5.35;;;14.70;99.90;;;;;;6206440;23;20019;-67
2022/10/01 21:24:46;;;;;;;4.10;3.80;;;14.70;99.90;;;;;;6202651;23;20080;-67
2022/10/01 21:27:36;;;;;;;3.60;3.30;;;14.70;99.90;;;;;;6205966;23;20008;-68
2022/10/01 21:30:13;;;;;;;3.00;2.80;;;14.70;99.90;;;;;;6205735;23;20502;-68
2022/10/01 21:33:12;;;;;;;2.95;2.30;;;14.70;99.90;;;;;;6206032;23;20084;-69
2022/10/01 21:36:01;;;;;;;2.65;2.08;;;14.70;99.90;;;;;;6205320;23;20008;-68
2022/10/01 21:38:57;;;;;;;2.35;2.13;;;14.70;99.90;;;;;;6198349;23;20011;-68
2022/10/01 21:41:36;;;;;;;2.65;2.20;;;14.70;99.90;;;;;;6197509;23;20023;-68
2022/10/01 21:44:39;;;;;;;3.15;2.00;;;14.70;99.90;;;;;;6201863;23;20012;-68
2022/10/01 21:47:24;;;;;;;2.10;1.90;;;14.70;99.90;;;;;;6202866;23;20429;-68
2022/10/01 21:50:20;;;;;;;2.00;1.80;;;14.80;99.90;;;;;;6202007;23;20012;-68
2022/10/01 21:52:52;;;;;;;2.17;1.77;;;14.80;99.90;;;;;;6201179;23;20434;-65
2022/10/01 21:55:21;;;;;;;2.60;2.10;;;14.80;99.90;;;;;;6203690;23;20004;-65
2022/10/01 21:57:55;;;;;;;2.33;2.13;;;14.80;99.90;;;;;;6202071;23;20226;-66
2022/10/01 22:00:25;;;;;;;2.20;1.88;;;14.80;99.90;;;;;;6198456;23;20039;-65
2022/10/01 22:03:18;;;;;;;2.70;2.40;;;14.80;99.90;;;;;;6204348;23;20323;-64
2022/10/01 22:06:13;;;;;;;3.88;2.85;;;14.80;99.90;;;;;;6200060;23;20441;-65
2022/10/01 22:08:58;;;;;;;2.75;2.55;;;14.70;99.90;;;;;;6199198;23;20009;-65
2022/10/01 22:11:30;;;;;;;2.60;2.40;;;14.60;99.90;;;;;;6199821;23;20000;-65
2022/10/01 22:14:00;;;;;;;2.97;2.53;;;14.70;99.90;;;;;;6203058;23;20102;-65
2022/10/01 22:16:32;;;;;;;2.22;2.03;;;14.70;99.90;;;;;;6199392;23;20292;-65
2022/10/01 22:19:10;;;;;;;1.45;1.30;;;14.60;99.90;;;;;;6196071;23;20011;-66
2022/10/01 22:21:44;;;;;;;1.30;1.20;;;14.60;99.90;;;;;;6199172;23;20053;-66
2022/10/01 22:24:13;;;;;;;1.65;1.30;;;14.60;99.90;;;;;;6204587;23;20217;-65
2022/10/01 22:26:44;;;;;;;2.50;1.38;;;14.50;99.90;;;;;;6202607;23;20011;-66
2022/10/01 22:29:17;;;;;;;1.35;1.13;;;14.50;99.90;;;;;;6205938;23;20000;-69
2022/10/01 22:31:46;;;;;;;1.10;0.95;;;14.50;99.90;;;;;;6201660;23;20019;-68
2022/10/01 22:34:17;;;;;;;1.70;1.00;;;14.40;99.90;;;;;;6199302;23;19996;-68
2022/10/01 22:36:49;;;;;;;1.27;0.65;;;14.40;99.90;;;;;;6201835;23;20008;-68
2022/10/01 22:39:22;;;;;;;1.95;1.20;;;14.50;99.90;;;;;;6202681;23;20005;-69
2022/10/01 22:42:00;;;;;;;0.80;0.80;;;14.50;99.90;;;;;;6204701;23;20016;-69
2022/10/01 22:44:27;;;;;;;2.83;1.00;;;14.50;99.90;;;;;;6204043;23;20009;-69
2022/10/01 22:47:07;;;;;;;4.57;1.00;;;14.50;99.90;;;;;;6201684;23;20012;-68
2022/10/01 22:50:07;;;;;;;1.80;0.60;;;14.40;99.90;;;;;;6205545;23;20004;-69
2022/10/01 22:52:46;;;;;;;2.55;0.80;;;14.40;99.90;;;;;;6201577;23;20036;-71
2022/10/01 22:55:30;;;;;;;1.80;0.60;;;14.30;99.90;;;;;;6205124;23;20547;-68
2022/10/01 22:58:21;;;;;;;1.23;1.00;;;14.40;99.90;;;;;;6205244;23;20097;-70
2022/10/01 23:01:03;;;;;;;1.42;0.52;;;14.40;99.90;;;;;;6201633;23;20377;-68
2022/10/01 23:03:55;;;;;;;2.20;0.70;;;14.40;99.90;;;;;;6203306;23;20012;-70
2022/10/01 23:06:50;;;;;;;1.85;0.93;;;14.30;99.90;;;;;;6205008;23;20016;-69
2022/10/01 23:09:34;;;;;;;1.30;1.00;;;14.40;99.90;;;;;;6193572;23;20008;-69
2022/10/01 23:12:19;;;;;;;3.08;0.90;;;14.40;99.90;;;;;;6203033;23;20007;-69
2022/10/01 23:15:05;;;;;;;0.63;0.63;;;14.30;99.90;;;;;;6200956;23;20013;-69
2022/10/01 23:17:49;;;;;;;1.52;0.70;;;14.30;99.90;;;;;;6202241;23;20010;-69
2022/10/01 23:20:43;;;;;;;0.80;0.77;;;14.30;99.90;;;;;;6202152;23;20007;-70
2022/10/01 23:23:31;;;;;;;0.77;0.60;;;14.40;99.90;;;;;;6203699;23;20095;-70
2022/10/01 23:26:20;;;;;;;4.13;0.70;;;14.40;99.90;;;;;;6202139;23;20000;-70
2022/10/01 23:29:00;;;;;;;0.60;0.55;;;14.30;99.90;;;;;;6160705;23;20005;-69
2022/10/01 23:31:38;;;;;;;1.90;0.45;;;14.20;99.90;;;;;;6203156;23;20090;-69
2022/10/01 23:34:07;;;;;;;0.50;0.50;;;14.20;99.90;;;;;;6205164;23;20370;-69
2022/10/01 23:36:35;;;;;;;3.38;0.50;;;14.20;99.90;;;;;;6204870;23;20013;-72
2022/10/01 23:39:25;;;;;;;1.60;0.50;;;14.30;99.90;;;;;;6204521;23;20413;-70
2022/10/01 23:41:56;;;;;;;0.38;0.35;;;14.40;99.90;;;;;;6203390;23;20203;-69
2022/10/01 23:44:32;;;;;;;1.73;0.30;;;14.40;99.90;;;;;;6204483;23;20000;-73
2022/10/01 23:47:01;;;;;;;3.90;0.50;;;14.40;99.90;;;;;;6202745;23;20008;-71
2022/10/01 23:49:31;;;;;;;1.60;0.60;;;14.50;99.90;;;;;;6205631;23;20015;-69
2022/10/01 23:51:59;;;;;;;1.45;0.40;;;14.60;99.90;;;;;;6204160;23;20008;-70
2022/10/01 23:54:40;;;;;;;1.35;0.82;;;14.60;99.90;;;;;;6202973;23;20028;-70
2022/10/01 23:57:11;;;;;;;1.25;0.90;;;14.60;99.90;;;;;;6205050;23;20001;-70
2022/10/01 23:59:42;;;;;;;0.93;0.75;;;14.60;99.90;;;;;;6202751;23;20038;-71
